Time;durP1;ratioP1;P1;durP2;ratioP2;P2;SDS_P1;SDS_P2;PMS_P1;PMS_P2;Temp;Humidity;BMP_temperature;BMP_pressure;BME280_temperature;BME280_humidity;BME280_pressure;Samples;Min_cycle;Max_cycle;Signal;HPM_P1;HPM_P2
2023/07/05 00:01:32;;;;;;;8.20;4.43;;;;;;;17.41;81.21;100373.63;5025900;28;20459;-86
2023/07/05 00:03:57;;;;;;;5.53;4.00;;;;;;;17.43;80.97;100367.19;5016841;28;20026;-86
2023/07/05 00:06:22;;;;;;;6.82;4.07;;;;;;;17.39;80.97;100349.69;5025498;28;20480;-85
2023/07/05 00:08:48;;;;;;;5.82;3.72;;;;;;;17.39;80.92;100341.66;5013532;28;20033;-86
2023/07/05 00:11:13;;;;;;;5.05;3.67;;;;;;;17.37;80.63;100332.94;5027848;28;20021;-86
2023/07/05 00:13:39;;;;;;;5.88;3.85;;;;;;;17.28;81.14;100320.28;5021262;28;20152;-86
2023/07/05 00:16:05;;;;;;;6.00;4.10;;;;;;;17.21;82.04;100313.72;5017048;28;20401;-86
2023/07/05 00:18:30;;;;;;;10.00;4.00;;;;;;;17.18;81.98;100312.09;5027465;28;20032;-86
2023/07/05 00:21:00;;;;;;;6.70;3.67;;;;;;;17.19;82.52;100310.28;5030930;28;20025;-85
2023/07/05 00:23:26;;;;;;;7.85;4.20;;;;;;;17.17;83.74;100290.88;5028657;28;20021;-84
2023/07/05 00:25:51;;;;;;;6.80;3.65;;;;;;;17.03;83.61;100273.22;5027168;28;20025;-85
2023/07/05 00:28:17;;;;;;;6.00;3.45;;;;;;;16.93;83.74;100256.19;5017996;28;20562;-85
2023/07/05 00:30:43;;;;;;;6.68;3.65;;;;;;;16.91;83.77;100261.63;5026189;28;20036;-86
2023/07/05 00:33:08;;;;;;;5.60;3.35;;;;;;;16.96;84.10;100250.59;5021807;28;20071;-86
2023/07/05 00:35:33;;;;;;;8.45;4.45;;;;;;;16.94;83.84;100247.22;5033273;28;20025;-86
2023/07/05 00:37:59;;;;;;;5.47;3.47;;;;;;;16.99;84.14;100240.56;5024368;28;20028;-87
2023/07/05 00:40:24;;;;;;;4.30;3.60;;;;;;;17.00;83.53;100223.56;5027598;28;20047;-87
2023/07/05 00:42:49;;;;;;;7.72;3.80;;;;;;;16.90;84.06;100205.69;5022503;28;20110;-86
2023/07/05 00:45:14;;;;;;;5.65;3.22;;;;;;;16.90;84.42;100187.84;5028215;28;20022;-88
2023/07/05 00:47:42;;;;;;;5.60;3.75;;;;;;;16.85;84.41;100197.19;5023339;28;20485;-88
2023/07/05 00:50:22;;;;;;;7.10;3.70;;;;;;;16.89;84.17;100220.88;5026405;28;20375;-87
2023/07/05 00:52:47;;;;;;;6.68;3.50;;;;;;;16.86;84.61;100217.56;5027678;28;20049;-86
2023/07/05 00:55:13;;;;;;;4.93;3.20;;;;;;;16.87;84.28;100213.94;5024350;28;20132;-88
2023/07/05 00:57:39;;;;;;;4.30;3.10;;;;;;;16.91;83.95;100220.75;5016084;28;20042;-87
2023/07/05 01:00:09;;;;;;;5.00;3.10;;;;;;;16.86;84.66;100202.41;5024597;28;20048;-87
2023/07/05 01:02:39;;;;;;;6.10;3.00;;;;;;;16.86;84.66;100207.75;5019449;28;20543;-87
2023/07/05 01:05:06;;;;;;;5.32;3.10;;;;;;;16.92;83.95;100198.41;5020653;28;20484;-88
2023/07/05 01:07:31;;;;;;;6.03;3.03;;;;;;;16.94;84.40;100199.16;5020677;28;20119;-88
2023/07/05 01:09:57;;;;;;;5.47;3.20;;;;;;;16.98;84.09;100195.28;5021622;28;20555;-89
2023/07/05 01:12:28;;;;;;;6.88;3.20;;;;;;;16.96;84.65;100202.53;5017797;28;20060;-85
2023/07/05 01:15:02;;;;;;;4.47;3.13;;;;;;;16.85;85.30;100197.19;5011968;28;20072;-86
2023/07/05 01:17:44;;;;;;;6.90;3.30;;;;;;;16.84;85.26;100188.31;5026630;28;20175;-87
2023/07/05 01:20:48;;;;;;;5.18;3.42;;;;;;;16.94;84.78;100196.47;5016102;28;20033;-87
2023/07/05 01:23:44;;;;;;;4.53;3.22;;;;;;;16.96;84.38;100187.38;5020487;28;20563;-87
2023/07/05 01:26:34;;;;;;;7.05;3.47;;;;;;;17.07;84.25;100189.22;5026192;28;20021;-88
2023/07/05 01:29:11;;;;;;;5.82;3.42;;;;;;;17.06;84.17;100177.66;5031123;28;20484;-87
2023/07/05 01:31:58;;;;;;;4.53;2.97;;;;;;;17.11;83.88;100179.97;5019415;28;20029;-88
2023/07/05 01:34:52;;;;;;;4.78;3.30;;;;;;;17.17;83.97;100179.53;5042106;28;20017;-87
2023/07/05 01:37:34;;;;;;;4.63;2.92;;;;;;;17.15;83.65;100181.44;5020187;28;20049;-89
2023/07/05 01:39:59;;;;;;;6.07;3.35;;;;;;;17.12;84.86;100186.19;5028198;28;20037;-89
2023/07/05 01:42:32;;;;;;;7.35;2.72;;;;;;;17.02;85.26;100186.03;5024990;28;20060;-88
2023/07/05 01:44:58;;;;;;;6.70;3.20;;;;;;;17.03;85.51;100193.09;5023024;28;20088;-91
2023/07/05 01:47:34;;;;;;;4.88;3.13;;;;;;;17.06;84.47;100191.03;5022783;28;20014;-89
2023/07/05 01:50:11;;;;;;;3.58;2.65;;;;;;;17.16;84.49;100198.31;5021622;28;20029;-90
2023/07/05 01:52:51;;;;;;;4.38;2.58;;;;;;;17.20;83.78;100189.09;5018997;28;20409;-88
2023/07/05 01:55:27;;;;;;;3.10;2.30;;;;;;;17.18;84.14;100191.91;5023021;28;20789;-90
2023/07/05 01:57:59;;;;;;;3.10;2.38;;;;;;;17.15;83.97;100189.47;5018814;28;20030;-89
2023/07/05 02:00:25;;;;;;;;;;;;;;;17.28;82.33;100203.56;5020852;28;20052;-90
2023/07/05 02:03:08;;;;;;;4.60;2.47;;;;;;;17.17;82.86;100214.25;5024075;28;20015;-90
2023/07/05 02:05:34;;;;;;;4.53;2.50;;;;;;;17.10;82.80;100221.03;5015892;28;20424;-89
2023/07/05 02:08:00;;;;;;;3.90;2.40;;;;;;;17.13;82.83;100230.63;5014313;28;20026;-89
2023/07/05 02:10:27;;;;;;;5.18;2.40;;;;;;;17.04;83.06;100235.69;5030097;28;20044;-88
2023/07/05 02:12:53;;;;;;;3.30;2.40;;;;;;;17.01;82.45;100243.09;5032780;28;20078;-89
2023/07/05 02:15:20;;;;;;;3.30;2.17;;;;;;;17.00;82.38;100254.75;5026990;28;20551;-88
2023/07/05 02:17:46;;;;;;;4.10;1.63;;;;;;;17.00;77.84;100252.09;5022803;28;20061;-89
2023/07/05 02:20:11;;;;;;;1.95;1.77;;;;;;;16.92;75.83;100255.31;5018677;28;20111;-88
2023/07/05 02:22:46;;;;;;;1.52;1.30;;;;;;;16.91;74.00;100266.13;5028674;28;20044;-89
2023/07/05 02:25:11;;;;;;;3.10;1.42;;;;;;;16.82;72.76;100292.53;5025591;28;20135;-90
2023/07/05 02:27:37;;;;;;;2.20;1.40;;;;;;;16.63;72.75;100286.84;5022749;28;20536;-88
2023/07/05 02:30:04;;;;;;;1.60;1.35;;;;;;;16.50;72.25;100300.25;5023780;28;20029;-90
2023/07/05 02:32:29;;;;;;;3.25;1.92;;;;;;;16.43;71.24;100292.81;5024323;28;20028;-87
2023/07/05 02:34:59;;;;;;;3.10;1.83;;;;;;;16.38;71.36;100305.66;5032217;28;20029;-88
2023/07/05 02:37:24;;;;;;;2.58;1.88;;;;;;;16.29;71.80;100294.66;5028274;28;20025;-88
2023/07/05 02:39:53;;;;;;;2.22;1.80;;;;;;;16.27;71.64;100301.94;5026691;28;20045;-88
2023/07/05 02:42:19;;;;;;;2.20;1.67;;;;;;;16.25;72.45;100308.34;5015795;28;20498;-90
2023/07/05 02:44:47;;;;;;;4.28;2.10;;;;;;;16.13;73.67;100306.53;5033021;28;20026;-88
2023/07/05 02:47:12;;;;;;;3.50;1.95;;;;;;;16.05;72.12;100312.44;5022982;28;21216;-89
2023/07/05 02:49:37;;;;;;;4.80;2.42;;;;;;;15.98;71.86;100308.50;5024061;28;20467;-89
2023/07/05 02:52:03;;;;;;;4.93;2.28;;;;;;;15.92;71.58;100308.94;5032907;28;20036;-88
2023/07/05 02:54:28;;;;;;;2.85;2.35;;;;;;;15.71;71.90;100304.16;5033377;28;20051;-89
2023/07/05 02:56:53;;;;;;;3.78;2.03;;;;;;;15.66;72.49;100308.09;5026001;28;20531;-89
2023/07/05 02:59:19;;;;;;;2.70;2.03;;;;;;;15.62;72.91;100307.44;5023991;28;20028;-90
2023/07/05 03:01:44;;;;;;;3.65;2.38;;;;;;;15.66;73.23;100300.09;5016881;28;20057;-87
2023/07/05 03:04:09;;;;;;;3.88;2.50;;;;;;;15.57;73.12;100310.44;5013921;28;20064;-88
2023/07/05 03:06:35;;;;;;;4.50;2.78;;;;;;;15.50;73.03;100305.63;5022538;28;20193;-92
2023/07/05 03:09:00;;;;;;;4.43;2.25;;;;;;;15.47;72.72;100295.16;5023010;28;20030;-87
2023/07/05 03:11:25;;;;;;;3.72;2.25;;;;;;;15.42;72.65;100307.97;5019538;28;20070;-88
2023/07/05 03:13:50;;;;;;;4.05;2.35;;;;;;;15.44;72.82;100314.06;5024114;28;20468;-87
2023/07/05 03:16:16;;;;;;;4.93;2.80;;;;;;;15.27;73.71;100304.53;5019790;28;20100;-87
2023/07/05 03:18:41;;;;;;;4.15;2.83;;;;;;;15.16;74.06;100304.44;5029574;28;20028;-89
2023/07/05 03:21:06;;;;;;;3.97;2.38;;;;;;;15.18;73.12;100314.00;5023501;28;20029;-89
2023/07/05 03:23:32;;;;;;;3.50;2.30;;;;;;;15.17;74.07;100312.31;5018915;28;20049;-90
2023/07/05 03:26:03;;;;;;;4.18;2.80;;;;;;;15.21;73.53;100328.94;5024402;28;20092;-87
2023/07/05 03:28:31;;;;;;;5.22;2.50;;;;;;;15.26;73.02;100311.69;5017440;28;20248;-87
2023/07/05 03:31:03;;;;;;;5.18;2.85;;;;;;;15.24;72.84;100308.25;5024682;28;20516;-88
2023/07/05 03:33:29;;;;;;;3.03;2.40;;;;;;;15.24;73.22;100307.41;5030003;28;20022;-88
2023/07/05 03:36:04;;;;;;;4.35;2.88;;;;;;;15.22;73.22;100319.97;5026078;28;20124;-87
2023/07/05 03:38:31;;;;;;;4.18;3.13;;;;;;;15.23;72.78;100305.69;5035313;28;20526;-87
2023/07/05 03:41:04;;;;;;;6.75;3.25;;;;;;;15.14;73.30;100306.31;5016729;28;20116;-88
2023/07/05 03:43:32;;;;;;;5.25;3.17;;;;;;;15.19;72.67;100312.19;5023028;28;20032;-88
2023/07/05 03:46:01;;;;;;;5.38;2.80;;;;;;;15.17;72.71;100317.63;5025279;28;20131;-88
2023/07/05 03:48:29;;;;;;;5.13;3.47;;;;;;;15.17;72.60;100314.97;5027104;28;20061;-88
2023/07/05 03:50:56;;;;;;;5.53;3.13;;;;;;;15.20;72.66;100319.22;5035751;28;20118;-88
2023/07/05 03:53:22;;;;;;;8.23;3.60;;;;;;;15.27;73.03;100328.50;5023801;28;20361;-87
2023/07/05 03:55:47;;;;;;;5.05;3.55;;;;;;;15.17;73.20;100311.44;5026684;28;20128;-87
2023/07/05 03:58:13;;;;;;;5.80;2.88;;;;;;;15.18;72.94;100306.00;5025715;28;20029;-87
2023/07/05 04:00:38;;;;;;;5.15;3.15;;;;;;;15.22;72.81;100299.53;5030026;28;20030;-88
2023/07/05 04:03:03;;;;;;;6.47;3.40;;;;;;;15.17;73.07;100299.00;5022262;28;20365;-88
2023/07/05 04:05:29;;;;;;;5.15;3.40;;;;;;;15.25;73.13;100295.81;5026142;28;20031;-88
2023/07/05 04:07:54;;;;;;;5.85;3.20;;;;;;;15.10;73.45;100302.16;5013003;28;20029;-88
2023/07/05 04:10:19;;;;;;;7.97;3.88;;;;;;;15.20;72.46;100293.47;5028181;28;20037;-88
2023/07/05 04:12:44;;;;;;;7.05;3.25;;;;;;;15.24;72.62;100299.41;5026848;28;20087;-87
2023/07/05 04:15:10;;;;;;;5.60;3.30;;;;;;;15.29;72.86;100302.63;5014588;28;20024;-88
2023/07/05 04:17:35;;;;;;;5.43;3.10;;;;;;;15.27;72.68;100288.56;5026690;28;20098;-88
2023/07/05 04:20:02;;;;;;;4.93;3.67;;;;;;;15.31;71.99;100306.88;5025771;28;20600;-87
2023/07/05 04:22:30;;;;;;;7.95;3.20;;;;;;;15.20;73.10;100312.09;5023249;28;20112;-87
2023/07/05 04:24:55;;;;;;;6.95;3.58;;;;;;;15.21;72.19;100297.81;5019328;28;20583;-86
2023/07/05 04:27:21;;;;;;;7.50;3.55;;;;;;;15.18;72.22;100300.69;5015634;28;20053;-88
2023/07/05 04:29:46;;;;;;;5.95;3.70;;;;;;;15.18;72.31;100308.69;5027379;28;20166;-88
2023/07/05 04:32:11;;;;;;;8.63;3.65;;;;;;;15.31;71.69;100309.56;5022575;28;20068;-86
2023/07/05 04:34:40;;;;;;;5.90;3.45;;;;;;;15.29;71.16;100311.47;5018080;28;20086;-88
2023/07/05 04:37:05;;;;;;;4.25;2.38;;;;;;;15.36;70.35;100305.72;5017483;28;20029;-87
2023/07/05 04:39:31;;;;;;;7.55;3.63;;;;;;;15.32;71.29;100307.75;5013836;28;20393;-87
2023/07/05 04:41:56;;;;;;;7.68;3.47;;;;;;;15.35;70.57;100306.69;5019660;28;20471;-88
2023/07/05 04:44:21;;;;;;;5.55;3.60;;;;;;;15.34;70.34;100307.63;5021229;28;20037;-88
2023/07/05 04:46:47;;;;;;;5.28;3.00;;;;;;;15.40;70.20;100317.88;5017262;28;20453;-88
2023/07/05 04:49:12;;;;;;;5.72;3.20;;;;;;;15.37;69.72;100318.09;5015937;28;20504;-87
2023/07/05 04:51:37;;;;;;;6.93;3.40;;;;;;;15.41;70.05;100322.25;5015661;28;20038;-87
2023/07/05 04:54:02;;;;;;;5.38;3.60;;;;;;;15.42;69.64;100321.28;5031254;28;20124;-87
2023/07/05 04:56:28;;;;;;;5.30;3.00;;;;;;;15.47;70.48;100319.16;5032240;28;20025;-87
2023/07/05 04:58:53;;;;;;;10.18;3.72;;;;;;;15.44;70.28;100322.03;5016147;28;20021;-87
2023/07/05 05:01:19;;;;;;;3.40;2.65;;;;;;;15.42;69.90;100318.63;5028973;28;20361;-87
2023/07/05 05:03:44;;;;;;;5.35;3.55;;;;;;;15.47;68.85;100312.00;5022858;28;20065;-87
2023/07/05 05:06:10;;;;;;;6.85;3.17;;;;;;;15.50;69.32;100316.28;5032094;28;20054;-88
2023/07/05 05:08:35;;;;;;;8.32;3.45;;;;;;;15.48;69.30;100321.72;5016167;28;20025;-89
2023/07/05 05:11:03;;;;;;;5.53;2.88;;;;;;;15.47;68.95;100333.31;5023232;28;20025;-87
2023/07/05 05:13:30;;;;;;;5.07;2.50;;;;;;;15.53;68.46;100322.25;5032139;28;20058;-86
2023/07/05 05:15:56;;;;;;;6.47;3.17;;;;;;;15.66;67.37;100332.09;5021054;28;20389;-87
2023/07/05 05:18:23;;;;;;;5.70;3.13;;;;;;;15.65;67.87;100341.88;5035966;28;20026;-88
2023/07/05 05:20:48;;;;;;;4.47;3.33;;;;;;;15.53;68.45;100327.59;5034443;28;20037;-87
2023/07/05 05:23:14;;;;;;;5.53;3.03;;;;;;;15.50;67.76;100326.94;5035610;28;20546;-87
2023/07/05 05:25:42;;;;;;;4.45;3.13;;;;;;;15.56;68.03;100337.16;5023726;28;20025;-87
2023/07/05 05:28:07;;;;;;;6.88;2.65;;;;;;;15.57;66.85;100320.22;5019929;28;20572;-88
2023/07/05 05:30:34;;;;;;;7.53;2.80;;;;;;;15.55;67.20;100330.13;5029035;28;20109;-89
2023/07/05 05:33:00;;;;;;;5.72;2.85;;;;;;;15.50;66.79;100313.63;5034427;28;20021;-87
2023/07/05 05:35:25;;;;;;;6.38;2.83;;;;;;;15.57;67.23;100333.53;5023017;28;20076;-88
2023/07/05 05:37:50;;;;;;;7.45;3.20;;;;;;;15.49;66.82;100318.09;5026012;28;20021;-87
2023/07/05 05:40:16;;;;;;;5.63;2.72;;;;;;;15.48;66.73;100327.06;5020491;28;20552;-87
2023/07/05 05:42:41;;;;;;;4.35;2.85;;;;;;;15.46;67.40;100325.44;5021521;28;20033;-88
2023/07/05 05:45:07;;;;;;;3.80;2.90;;;;;;;15.47;66.82;100349.31;5022141;28;20196;-87
2023/07/05 05:47:33;;;;;;;6.68;3.08;;;;;;;15.44;67.81;100338.03;5021157;28;20091;-88
2023/07/05 05:49:58;;;;;;;5.65;2.85;;;;;;;15.42;67.04;100330.13;5024706;28;20025;-88
2023/07/05 05:52:23;;;;;;;7.03;3.22;;;;;;;15.51;66.88;100326.81;5018662;28;20045;-88
2023/07/05 05:54:49;;;;;;;5.30;2.92;;;;;;;15.56;67.10;100306.03;5026632;28;20021;-87
2023/07/05 05:57:14;;;;;;;4.88;2.70;;;;;;;15.51;67.39;100341.97;5018984;28;20029;-86
2023/07/05 05:59:39;;;;;;;6.88;3.40;;;;;;;15.45;66.58;100324.59;5019686;28;20026;-87
2023/07/05 06:02:05;;;;;;;5.75;2.97;;;;;;;15.39;67.20;100350.78;5014833;28;20057;-88
2023/07/05 06:04:30;;;;;;;6.03;2.92;;;;;;;15.54;67.34;100349.75;5019904;28;21412;-88
2023/07/05 06:06:56;;;;;;;6.05;2.65;;;;;;;15.59;66.88;100360.94;5018715;28;20028;-88
2023/07/05 06:09:24;;;;;;;3.97;3.00;;;;;;;15.69;66.53;100367.38;5023995;28;20021;-88
2023/07/05 06:11:49;;;;;;;5.03;2.70;;;;;;;15.57;66.96;100398.38;5016657;28;20040;-88
2023/07/05 06:14:15;;;;;;;4.10;2.63;;;;;;;15.62;67.58;100373.19;5019415;28;20025;-88
2023/07/05 06:16:40;;;;;;;4.43;2.60;;;;;;;15.71;67.26;100361.94;5018382;28;20029;-87
2023/07/05 06:19:05;;;;;;;4.45;2.72;;;;;;;15.74;67.10;100367.91;5018800;28;20026;-88
2023/07/05 06:21:30;;;;;;;4.55;2.92;;;;;;;15.54;67.91;100371.91;5024221;28;20033;-88
2023/07/05 06:23:56;;;;;;;4.80;2.70;;;;;;;15.55;68.45;100389.59;5024382;28;20157;-88
2023/07/05 06:26:21;;;;;;;4.97;3.13;;;;;;;15.43;68.77;100401.06;5022227;28;20029;-89
2023/07/05 06:28:46;;;;;;;4.70;2.35;;;;;;;15.51;67.77;100409.41;5022684;28;20031;-87
2023/07/05 06:31:12;;;;;;;6.10;2.90;;;;;;;15.73;68.03;100387.53;5031657;28;20033;-87
2023/07/05 06:33:39;;;;;;;5.55;2.83;;;;;;;15.96;66.23;100403.75;5025832;28;20448;-88
2023/07/05 06:36:05;;;;;;;4.55;2.20;;;;;;;15.93;65.22;100394.13;5028964;28;20436;-89
2023/07/05 06:38:31;;;;;;;7.07;2.65;;;;;;;16.06;65.37;100392.31;5040154;28;20373;-88
2023/07/05 06:40:57;;;;;;;3.97;2.22;;;;;;;16.12;64.81;100401.69;5023741;28;20048;-88
2023/07/05 06:43:23;;;;;;;4.13;2.60;;;;;;;16.24;64.00;100403.50;5017233;28;20385;-87
2023/07/05 06:45:52;;;;;;;3.80;2.50;;;;;;;16.32;64.22;100394.97;5015046;28;20030;-87
2023/07/05 06:48:18;;;;;;;4.38;2.22;;;;;;;16.28;62.72;100410.34;5026408;28;20064;-86
2023/07/05 06:50:43;;;;;;;5.53;2.60;;;;;;;16.36;62.20;100411.59;5024526;28;20072;-86
2023/07/05 06:53:10;;;;;;;3.85;2.58;;;;;;;16.63;62.31;100411.44;5024185;28;20108;-86
2023/07/05 06:55:40;;;;;;;4.65;2.55;;;;;;;16.82;61.73;100425.19;5031688;28;20076;-86
2023/07/05 06:58:05;;;;;;;4.68;2.60;;;;;;;16.61;61.80;100437.41;5029525;28;20044;-85
2023/07/05 07:00:30;;;;;;;3.63;2.70;;;;;;;16.52;62.16;100429.09;5025876;28;20435;-85
2023/07/05 07:02:55;;;;;;;3.72;2.47;;;;;;;16.62;61.54;100434.63;5019987;28;20040;-83
2023/07/05 07:05:21;;;;;;;4.80;2.60;;;;;;;16.71;60.87;100441.97;5028744;28;21643;-83
2023/07/05 07:07:46;;;;;;;5.20;2.53;;;;;;;16.89;60.81;100439.81;5019230;28;20025;-83
2023/07/05 07:10:11;;;;;;;4.85;2.78;;;;;;;16.94;60.23;100436.81;5017120;28;20028;-83
2023/07/05 07:12:36;;;;;;;3.47;2.25;;;;;;;16.98;59.73;100448.97;5022486;28;20092;-83
2023/07/05 07:15:02;;;;;;;5.30;1.75;;;;;;;17.04;60.18;100461.88;5014622;28;21242;-84
2023/07/05 07:17:27;;;;;;;3.15;2.08;;;;;;;17.08;58.45;100468.69;5017372;28;20028;-83
2023/07/05 07:19:52;;;;;;;6.28;1.92;;;;;;;17.15;58.89;100482.44;5034927;28;20021;-83
2023/07/05 07:22:18;;;;;;;5.07;2.28;;;;;;;17.11;60.02;100475.63;5020616;28;20477;-83
2023/07/05 07:24:43;;;;;;;4.47;2.30;;;;;;;16.84;60.26;100479.34;5038522;28;20034;-82
2023/07/05 07:27:09;;;;;;;4.95;2.10;;;;;;;16.89;61.33;100479.03;5029195;28;20018;-83
2023/07/05 07:29:35;;;;;;;3.65;2.15;;;;;;;17.08;60.66;100506.09;5030447;28;20501;-83
2023/07/05 07:32:01;;;;;;;4.10;2.25;;;;;;;17.11;60.87;100499.66;5026942;28;20112;-83
2023/07/05 07:34:27;;;;;;;2.72;2.20;;;;;;;16.91;62.71;100514.47;5035885;28;20021;-82
2023/07/05 07:36:52;;;;;;;5.18;2.45;;;;;;;16.56;64.93;100520.47;5033609;28;20025;-82
2023/07/05 07:39:18;;;;;;;3.38;2.30;;;;;;;16.28;65.31;100535.72;5032208;28;20104;-82
2023/07/05 07:41:43;;;;;;;3.20;2.53;;;;;;;16.05;67.75;100531.09;5032145;28;20044;-83
2023/07/05 07:44:10;;;;;;;3.90;2.67;;;;;;;15.88;68.66;100534.06;5032140;28;20439;-83
2023/07/05 07:46:37;;;;;;;5.28;2.30;;;;;;;15.60;68.36;100535.84;5021658;28;20037;-83
2023/07/05 07:49:04;;;;;;;4.75;2.75;;;;;;;15.27;70.39;100546.91;5030178;28;20021;-83
2023/07/05 07:51:32;;;;;;;2.85;2.38;;;;;;;15.17;71.42;100537.78;5032769;28;20020;-83
2023/07/05 07:53:58;;;;;;;4.10;2.97;;;;;;;15.04;71.65;100553.69;5030903;28;20499;-83
2023/07/05 07:56:25;;;;;;;4.43;2.70;;;;;;;15.07;71.40;100556.16;5030948;28;20132;-83
2023/07/05 07:58:53;;;;;;;6.68;2.78;;;;;;;15.10;74.04;100561.28;5019569;28;20025;-83
2023/07/05 08:01:22;;;;;;;6.50;3.00;;;;;;;15.37;71.98;100555.16;5029278;28;20021;-83
2023/07/05 08:03:49;;;;;;;5.45;3.28;;;;;;;15.44;71.62;100556.47;5021993;28;20037;-83
2023/07/05 08:06:14;;;;;;;5.00;3.10;;;;;;;15.40;72.52;100554.97;5020539;28;20419;-83
2023/07/05 08:08:40;;;;;;;5.35;2.60;;;;;;;15.45;73.12;100559.03;5028958;28;20108;-82
2023/07/05 08:11:08;;;;;;;5.50;3.20;;;;;;;15.41;72.57;100560.19;5025170;28;20096;-83
2023/07/05 08:13:34;;;;;;;6.20;3.10;;;;;;;15.41;73.29;100556.66;5018984;28;20773;-83
2023/07/05 08:16:00;;;;;;;4.45;3.15;;;;;;;15.51;72.37;100566.63;5015176;28;20340;-83
2023/07/05 08:18:27;;;;;;;4.60;2.83;;;;;;;15.65;71.93;100565.75;5034009;28;20331;-83
2023/07/05 08:20:52;;;;;;;5.95;2.70;;;;;;;15.72;71.71;100559.06;5023609;28;20030;-83
2023/07/05 08:23:18;;;;;;;6.20;2.85;;;;;;;15.97;71.20;100560.09;5021438;28;20358;-84
2023/07/05 08:25:43;;;;;;;6.28;3.10;;;;;;;16.18;70.84;100580.00;5015471;28;20037;-83
2023/07/05 08:28:13;;;;;;;4.65;2.50;;;;;;;16.32;68.60;100569.25;5023278;28;20025;-83
2023/07/05 08:30:41;;;;;;;6.90;3.90;;;;;;;17.20;66.97;100576.47;5021880;28;20030;-83
2023/07/05 08:33:06;;;;;;;3.90;3.22;;;;;;;18.62;61.02;100579.19;5024886;28;20495;-82
2023/07/05 08:35:33;;;;;;;6.45;3.75;;;;;;;19.22;58.57;100590.56;5021270;28;20072;-83
2023/07/05 08:37:59;;;;;;;6.10;3.40;;;;;;;19.46;58.34;100583.22;5019744;28;20498;-83
2023/07/05 08:40:36;;;;;;;6.68;3.30;;;;;;;20.15;56.59;100582.06;5013649;28;20045;-83
2023/07/05 08:43:27;;;;;;;4.63;2.90;;;;;;;20.30;55.52;100595.00;5023542;28;20029;-82
2023/07/05 08:46:02;;;;;;;3.78;3.08;;;;;;;19.72;56.67;100601.69;5024695;28;20034;-83
2023/07/05 08:48:28;;;;;;;6.45;3.20;;;;;;;18.99;56.18;100609.31;5018954;28;20030;-83
2023/07/05 08:50:56;;;;;;;4.80;2.97;;;;;;;19.14;56.61;100611.75;5017079;28;20036;-83
2023/07/05 08:53:23;;;;;;;4.30;3.00;;;;;;;19.41;54.95;100609.56;5015457;28;20108;-82
2023/07/05 08:56:04;;;;;;;10.48;3.05;;;;;;;19.46;57.13;100622.59;5020699;28;20064;-82
2023/07/05 08:58:47;;;;;;;7.20;3.17;;;;;;;20.09;56.85;100639.75;5026837;28;20021;-82
2023/07/05 09:01:23;;;;;;;7.03;3.38;;;;;;;20.67;54.82;100626.81;5016435;28;20028;-82
2023/07/05 09:03:48;;;;;;;6.72;2.92;;;;;;;20.69;52.74;100640.13;5012638;28;20088;-82
2023/07/05 09:06:29;;;;;;;7.40;3.30;;;;;;;20.42;53.84;100638.75;5024454;28;20037;-82
2023/07/05 09:09:20;;;;;;;10.50;3.38;;;;;;;20.19;54.33;100650.56;5013963;28;20030;-83
2023/07/05 09:12:06;;;;;;;4.25;2.97;;;;;;;20.27;54.24;100664.22;5005343;28;20529;-82
2023/07/05 09:14:58;;;;;;;5.05;3.13;;;;;;;20.01;53.72;100647.63;5017763;28;20384;-82
2023/07/05 09:17:39;;;;;;;7.22;3.05;;;;;;;20.18;53.38;100638.13;5019887;28;20417;-82
2023/07/05 09:20:29;;;;;;;6.47;2.85;;;;;;;20.44;51.57;100665.50;5023004;28;20396;-83
2023/07/05 09:22:57;;;;;;;5.80;2.35;;;;;;;20.58;51.16;100647.25;5029389;28;20449;-82
2023/07/05 09:25:24;;;;;;;9.73;2.72;;;;;;;20.44;51.45;100660.13;5014469;28;20030;-83
2023/07/05 09:28:00;;;;;;;7.13;3.58;;;;;;;20.35;50.81;100654.53;5019970;28;20496;-82
2023/07/05 09:30:27;;;;;;;7.13;2.90;;;;;;;20.04;51.65;100668.81;5015860;28;20729;-82
2023/07/05 09:33:19;;;;;;;9.38;3.20;;;;;;;20.31;51.29;100669.19;5019122;28;20021;-81
2023/07/05 09:35:46;;;;;;;7.60;2.90;;;;;;;20.65;50.93;100693.25;5021860;28;20138;-82
2023/07/05 09:38:30;;;;;;;5.20;2.30;;;;;;;20.88;48.87;100685.91;5017860;28;20105;-82
2023/07/05 09:41:20;;;;;;;5.85;2.65;;;;;;;21.19;49.39;100705.63;5015075;28;20523;-82
2023/07/05 09:43:46;;;;;;;4.25;2.33;;;;;;;21.45;48.79;100691.75;5024914;28;20382;-81
2023/07/05 09:46:38;;;;;;;4.35;2.22;;;;;;;21.35;46.59;100706.00;5021883;28;20025;-81
2023/07/05 09:49:15;;;;;;;8.73;2.28;;;;;;;20.85;48.49;100713.91;5026486;28;20510;-82
2023/07/05 09:51:44;;;;;;;4.32;2.20;;;;;;;21.06;48.10;100716.59;5030646;28;20049;-82
2023/07/05 09:54:16;;;;;;;5.68;1.90;;;;;;;21.01;46.87;100718.81;5033929;28;20016;-81
2023/07/05 09:57:09;;;;;;;5.40;2.28;;;;;;;21.24;46.65;100732.97;5027322;28;20033;-81
2023/07/05 09:59:36;;;;;;;8.18;2.22;;;;;;;21.18;46.80;100743.41;5022270;28;20025;-82
2023/07/05 10:02:12;;;;;;;5.28;1.70;;;;;;;21.28;46.51;100736.25;5020391;28;20488;-82
2023/07/05 10:04:46;;;;;;;4.05;1.70;;;;;;;21.61;45.29;100735.16;5029115;28;20029;-82
2023/07/05 10:07:27;;;;;;;4.40;1.77;;;;;;;21.85;45.41;100734.81;5019818;28;20033;-82
2023/07/05 10:10:08;;;;;;;3.47;1.70;;;;;;;21.79;44.46;100736.22;5021523;28;20124;-81
2023/07/05 10:12:39;;;;;;;5.43;1.52;;;;;;;21.70;44.26;100741.56;5021613;28;20731;-81
2023/07/05 10:15:23;;;;;;;5.63;1.70;;;;;;;21.93;43.96;100750.28;5023131;28;20025;-82
2023/07/05 10:17:51;;;;;;;5.78;1.63;;;;;;;21.36;42.35;100764.22;5029819;28;20060;-82
2023/07/05 10:20:31;;;;;;;4.90;1.65;;;;;;;21.41;43.43;100771.03;5042353;28;20121;-81
2023/07/05 10:23:01;;;;;;;3.33;1.70;;;;;;;21.81;42.68;100769.22;5018488;28;20060;-81
2023/07/05 10:25:33;;;;;;;4.57;1.60;;;;;;;21.58;42.73;100773.94;5027658;28;20246;-81
2023/07/05 10:28:00;;;;;;;8.30;1.67;;;;;;;21.51;43.06;100790.75;5017768;28;20384;-82
2023/07/05 10:30:27;;;;;;;3.90;1.30;;;;;;;21.71;42.23;100814.09;5012497;28;20021;-83
2023/07/05 10:33:40;;;;;;;3.13;1.50;;;;;;;21.47;41.00;100802.78;5027021;28;20028;-83
2023/07/05 10:36:08;;;;;;;6.05;1.45;;;;;;;21.42;42.48;100802.31;5018583;28;20573;-82
2023/07/05 10:38:46;;;;;;;3.05;1.48;;;;;;;21.62;41.97;100801.44;5018361;28;20022;-83
2023/07/05 10:41:20;;;;;;;2.70;1.23;;;;;;;22.04;41.95;100825.56;5024443;28;20045;-85
2023/07/05 10:44:06;;;;;;;4.00;1.65;;;;;;;21.85;41.64;100799.41;5026986;28;20052;-85
2023/07/05 10:46:35;;;;;;;5.50;1.40;;;;;;;21.85;41.00;100813.72;5026202;28;20075;-85
2023/07/05 10:49:04;;;;;;;3.58;1.58;;;;;;;21.75;40.95;100823.59;5025239;28;20082;-84
2023/07/05 10:51:33;;;;;;;3.75;1.55;;;;;;;21.60;41.61;100844.63;5030437;28;20496;-85
2023/07/05 10:54:20;;;;;;;2.28;1.10;;;;;;;21.48;40.62;100832.22;5021798;28;20026;-83
2023/07/05 10:56:47;;;;;;;3.72;1.30;;;;;;;21.14;40.97;100844.97;5017091;28;20025;-83
2023/07/05 10:59:21;;;;;;;3.83;1.20;;;;;;;21.23;41.22;100830.75;5017804;28;20578;-83
2023/07/05 11:02:01;;;;;;;2.35;1.10;;;;;;;21.65;40.46;100839.69;5021123;28;20377;-83
2023/07/05 11:04:30;;;;;;;5.50;1.17;;;;;;;21.74;38.63;100848.81;5024754;28;20109;-84
2023/07/05 11:07:02;;;;;;;4.15;1.20;;;;;;;21.88;38.49;100843.06;5016747;28;20033;-83
2023/07/05 11:09:30;;;;;;;;;;;;;;;22.14;38.66;100835.41;5020365;28;20116;-82
2023/07/05 11:12:00;;;;;;;4.47;1.45;;;;;;;22.14;39.16;100848.00;5027237;28;19956;-80
2023/07/05 11:14:29;;;;;;;2.00;1.10;;;;;;;22.36;39.31;100850.50;5024618;28;20101;-82
2023/07/05 11:16:57;;;;;;;4.60;1.48;;;;;;;22.39;38.95;100836.78;5029455;28;20493;-81
2023/07/05 11:19:28;;;;;;;3.72;1.25;;;;;;;22.32;39.53;100850.91;5034619;28;20040;-82
2023/07/05 11:21:54;;;;;;;3.08;1.42;;;;;;;22.24;38.40;100842.66;5023577;28;20452;-83
2023/07/05 11:24:31;;;;;;;5.00;1.67;;;;;;;22.33;39.54;100866.94;5025849;28;20036;-82
2023/07/05 11:26:58;;;;;;;5.63;1.52;;;;;;;22.51;39.40;100863.59;5024813;28;20032;-82
2023/07/05 11:29:32;;;;;;;3.33;1.45;;;;;;;22.72;38.72;100852.72;5015631;28;20521;-82
2023/07/05 11:32:01;;;;;;;5.03;1.42;;;;;;;23.14;37.82;100870.38;5015467;28;20113;-81
2023/07/05 11:34:27;;;;;;;2.53;1.23;;;;;;;23.26;37.06;100868.34;5026185;28;20021;-87
2023/07/05 11:37:01;;;;;;;3.77;1.40;;;;;;;22.91;37.38;100875.19;5017996;28;20076;-87